createdAt,value
2014-07-23T00:00:45.809Z,21.86
2014-07-23T00:01:50.498Z,21.85
2014-07-23T00:02:55.188Z,21.81
2014-07-23T00:04:00.471Z,21.91
2014-07-23T00:05:05.442Z,21.83
2014-07-23T00:06:10.130Z,21.8
2014-07-23T00:07:14.822Z,21.84
2014-07-23T00:08:19.512Z,21.91
2014-07-23T00:09:24.201Z,21.84
2014-07-23T00:10:28.874Z,21.36
2014-07-23T00:11:33.564Z,21.22
2014-07-23T00:12:38.550Z,21.12
2014-07-23T00:13:43.224Z,21.38
2014-07-23T00:14:47.914Z,21.62
2014-07-23T00:15:52.604Z,21.68
2014-07-23T00:16:57.294Z,21.78
2014-07-23T00:18:02.263Z,21.78
2014-07-23T00:19:07.250Z,21.76
2014-07-23T00:20:12.236Z,21.8
2014-07-23T00:21:17.223Z,21.61
2014-07-23T00:22:21.913Z,21.32
2014-07-23T00:23:26.883Z,21.51
2014-07-23T00:24:31.572Z,21.59
2014-07-23T00:25:36.560Z,21.56
2014-07-23T00:26:41.249Z,21.4
2014-07-23T00:27:46.219Z,21.15
2014-07-23T00:28:51.207Z,21.01
2014-07-23T00:29:56.194Z,20.98
2014-07-23T00:31:00.867Z,21.1
2014-07-23T00:32:05.854Z,21.28
2014-07-23T00:33:10.542Z,21.32
2014-07-23T00:34:15.216Z,21.38
2014-07-23T00:35:20.203Z,21.42
2014-07-23T00:36:25.207Z,21.39
2014-07-23T00:37:29.920Z,21.49
2014-07-23T00:38:35.240Z,21.44
2014-07-23T00:39:39.967Z,21.45
2014-07-23T00:40:44.991Z,21.56
2014-07-23T00:41:49.704Z,21.57
2014-07-23T00:42:55.001Z,21.55
2014-07-23T00:43:59.704Z,21.5
2014-07-23T00:45:04.704Z,21.53
2014-07-23T00:46:09.698Z,21.72
2014-07-23T00:47:14.690Z,21.7
2014-07-23T00:48:19.384Z,21.8
2014-07-23T00:49:24.359Z,21.82
2014-07-23T00:50:29.350Z,21.82
2014-07-23T00:51:34.339Z,21.83
2014-07-23T00:52:39.015Z,21.78
2014-07-23T00:53:43.706Z,21.64
2014-07-23T00:54:47.695Z,21.52
2014-07-23T00:55:52.683Z,21.57
2014-07-23T00:56:57.670Z,21.68
2014-07-23T00:58:02.360Z,21.7
2014-07-23T00:59:07.050Z,21.83
2014-07-23T01:00:11.725Z,21.85
2014-07-23T01:01:16.418Z,21.8
2014-07-23T01:02:21.107Z,21.82
2014-07-23T01:03:26.093Z,21.78
2014-07-23T01:04:30.766Z,21.6
2014-07-23T01:05:35.456Z,21.71
2014-07-23T01:06:40.442Z,21.82
2014-07-23T01:07:45.116Z,21.87
2014-07-23T01:08:49.806Z,21.86
2014-07-23T01:09:54.480Z,21.85
2014-07-23T01:10:59.466Z,21.78
2014-07-23T01:12:04.154Z,21.68
2014-07-23T01:13:08.844Z,21.77
2014-07-23T01:14:13.533Z,21.96
2014-07-23T01:15:18.224Z,21.81
2014-07-23T01:16:22.914Z,21.71
2014-07-23T01:17:27.588Z,21.64
2014-07-23T01:18:32.278Z,21.72
2014-07-23T01:19:36.967Z,21.88
2014-07-23T01:20:41.657Z,21.88
2014-07-23T01:21:46.332Z,21.74
2014-07-23T01:22:51.318Z,21.72
2014-07-23T01:23:56.007Z,21.76
2014-07-23T01:25:00.697Z,21.72
2014-07-23T01:26:05.387Z,21.76
2014-07-23T01:27:10.075Z,21.8
2014-07-23T01:28:14.749Z,21.74
2014-07-23T01:29:19.736Z,21.7
2014-07-23T01:30:24.425Z,21.52
2014-07-23T01:31:29.100Z,21.42
2014-07-23T01:32:33.789Z,21.46
2014-07-23T01:33:38.776Z,21.53
2014-07-23T01:34:43.762Z,21.22
2014-07-23T01:35:48.451Z,21
2014-07-23T01:36:53.124Z,21.25
2014-07-23T01:37:58.408Z,21.24
2014-07-23T01:39:03.394Z,21.4
2014-07-23T01:40:08.068Z,21.43
2014-07-23T01:41:13.054Z,21.47
2014-07-23T01:42:18.339Z,21.54
2014-07-23T01:43:23.029Z,21.45
2014-07-23T01:44:27.717Z,21.44
2014-07-23T01:45:32.705Z,21.47
2014-07-23T01:46:37.393Z,21.58
2014-07-23T01:47:42.678Z,21.67
2014-07-23T01:48:47.383Z,21.61
2014-07-23T01:49:52.352Z,21.38
2014-07-23T01:50:57.043Z,21.26
2014-07-23T01:52:01.716Z,21.28
2014-07-23T01:53:06.406Z,21.17
2014-07-23T01:54:11.392Z,21.24
2014-07-23T01:55:16.067Z,21.12
2014-07-23T01:56:21.052Z,21.2
2014-07-23T01:57:25.741Z,21.25
2014-07-23T01:58:30.713Z,21.08
2014-07-23T01:59:35.404Z,21.17
2014-07-23T02:00:40.093Z,21.22
2014-07-23T02:01:45.080Z,21.27
2014-07-23T02:02:50.066Z,21.4
2014-07-23T02:03:54.755Z,21.44
2014-07-23T02:04:59.429Z,21.4
2014-07-23T02:06:04.416Z,21.3
2014-07-23T02:07:09.090Z,21.28
2014-07-23T02:08:13.779Z,21.28
2014-07-23T02:09:18.452Z,21.28
2014-07-23T02:10:23.439Z,21.32
2014-07-23T02:11:28.129Z,21.41
2014-07-23T02:12:33.412Z,21.38
2014-07-23T02:13:38.398Z,21.41
2014-07-23T02:14:43.072Z,21.36
2014-07-23T02:15:47.762Z,21.23
2014-07-23T02:16:52.453Z,21.38
2014-07-23T02:17:57.424Z,21.36
2014-07-23T02:19:02.410Z,21.26
2014-07-23T02:20:07.397Z,21.24
2014-07-23T02:21:12.085Z,21.44
2014-07-23T02:22:16.760Z,21.66
2014-07-23T02:23:21.449Z,21.58
2014-07-23T02:24:26.138Z,21.58
2014-07-23T02:25:30.828Z,21.45
2014-07-23T02:26:35.517Z,21.47
2014-07-23T02:27:40.504Z,21.45
2014-07-23T02:28:45.177Z,21.45
2014-07-23T02:29:49.867Z,21.37
2014-07-23T02:30:55.150Z,21.31
2014-07-23T02:31:59.824Z,21.43
2014-07-23T02:33:04.514Z,21.44
2014-07-23T02:34:09.500Z,21.39
2014-07-23T02:35:14.175Z,21.49
2014-07-23T02:36:18.864Z,21.56
2014-07-23T02:37:23.555Z,21.43
2014-07-23T02:38:28.243Z,21.44
2014-07-23T02:39:32.918Z,21.49
2014-07-23T02:40:37.622Z,21.52
2014-07-23T02:41:42.609Z,21.36
2014-07-23T02:42:47.283Z,21.43
2014-07-23T02:43:52.270Z,21.4
2014-07-23T02:44:56.958Z,21.43
2014-07-23T02:46:01.945Z,21.31
2014-07-23T02:47:06.619Z,21.31
2014-07-23T02:48:11.309Z,21.28
2014-07-23T02:49:15.998Z,21.31
2014-07-23T02:50:20.968Z,21.19
2014-07-23T02:51:25.658Z,21.22
2014-07-23T02:52:30.333Z,21.25
2014-07-23T02:53:35.022Z,21.21
2014-07-23T02:54:39.695Z,21.36
2014-07-23T02:55:44.682Z,21.36
2014-07-23T02:56:49.668Z,21.21
2014-07-23T02:57:54.656Z,21.26
2014-07-23T02:58:59.627Z,21.22
2014-07-23T03:00:04.317Z,21.08
2014-07-23T03:01:09.303Z,20.97
2014-07-23T03:02:14.289Z,21.02
2014-07-23T03:03:19.276Z,21.16
2014-07-23T03:04:24.245Z,21.13
2014-07-23T03:05:28.936Z,21.08
2014-07-23T03:06:33.922Z,21.2
2014-07-23T03:07:38.611Z,20.89
2014-07-23T03:08:43.285Z,20.96
2014-07-23T03:09:48.272Z,21
2014-07-23T03:10:52.946Z,21.1
2014-07-23T03:11:57.932Z,21.1
2014-07-23T03:13:02.622Z,21.07
2014-07-23T03:14:07.905Z,20.95
2014-07-23T03:15:12.578Z,20.82
2014-07-23T03:16:17.269Z,20.95
2014-07-23T03:17:22.256Z,21.16
2014-07-23T03:18:26.931Z,20.96
2014-07-23T03:19:31.620Z,21.02
2014-07-23T03:20:36.293Z,20.95
2014-07-23T03:21:40.983Z,21.09
2014-07-23T03:22:45.672Z,20.91
2014-07-23T03:23:50.643Z,20.97
2014-07-23T03:24:55.629Z,20.82
2014-07-23T03:26:00.319Z,20.86
2014-07-23T03:27:05.008Z,20.88
2014-07-23T03:28:09.699Z,20.84
2014-07-23T03:29:14.372Z,20.88
2014-07-23T03:30:19.061Z,20.71
2014-07-23T03:31:24.032Z,20.85
2014-07-23T03:32:28.722Z,20.83
2014-07-23T03:33:33.395Z,20.76
2014-07-23T03:34:38.383Z,20.82
2014-07-23T03:35:43.352Z,20.96
2014-07-23T03:36:48.339Z,20.87
2014-07-23T03:37:53.028Z,20.73
2014-07-23T03:38:58.017Z,20.77
2014-07-23T03:40:02.690Z,20.88
2014-07-23T03:41:07.380Z,21
2014-07-23T03:42:12.069Z,21.08
2014-07-23T03:43:17.040Z,21.07
2014-07-23T03:44:21.730Z,21.09
2014-07-23T03:45:25.732Z,21.22
2014-07-23T03:46:30.421Z,21.12
2014-07-23T03:47:35.094Z,21.12
2014-07-23T03:48:39.785Z,21.1
2014-07-23T03:49:44.473Z,21.1
2014-07-23T03:50:49.147Z,21.19
2014-07-23T03:51:54.149Z,20.94
2014-07-23T03:52:58.838Z,20.8
2014-07-23T03:54:03.512Z,20.9
2014-07-23T03:55:08.202Z,20.92
2014-07-23T03:56:12.876Z,20.88
2014-07-23T03:57:17.567Z,21.03
2014-07-23T03:58:22.538Z,21.11
2014-07-23T03:59:27.525Z,21.09
2014-07-23T04:00:32.511Z,21.19
2014-07-23T04:01:37.497Z,20.71
2014-07-23T04:02:42.172Z,20.92
2014-07-23T04:03:47.454Z,20.96
2014-07-23T04:04:52.145Z,20.97
2014-07-23T04:05:56.849Z,21.14
2014-07-23T04:07:01.538Z,21.15
2014-07-23T04:08:06.228Z,21.09
2014-07-23T04:09:10.902Z,20.64
2014-07-23T04:10:15.889Z,20.28
2014-07-23T04:11:20.562Z,20.37
2014-07-23T04:12:25.267Z,20.38
2014-07-23T04:13:29.958Z,20.44
2014-07-23T04:14:34.630Z,20.56
2014-07-23T04:15:39.617Z,20.41
2014-07-23T04:16:44.306Z,20.8
2014-07-23T04:17:49.277Z,21.01
2014-07-23T04:18:54.263Z,21.09
2014-07-23T04:19:58.953Z,21
2014-07-23T04:21:03.939Z,21.2
2014-07-23T04:22:08.615Z,21.24
2014-07-23T04:23:13.602Z,21.29
2014-07-23T04:24:18.275Z,21.35
2014-07-23T04:25:22.965Z,21.36
2014-07-23T04:26:27.654Z,21.36
2014-07-23T04:27:32.327Z,21.36
2014-07-23T04:28:37.314Z,21.35
2014-07-23T04:29:41.988Z,21.52
2014-07-23T04:30:46.974Z,21.48
2014-07-23T04:31:52.257Z,21.46
2014-07-23T04:32:56.947Z,21.4
2014-07-23T04:34:01.933Z,21.48
2014-07-23T04:35:06.919Z,21.52
2014-07-23T04:36:11.593Z,21.16
2014-07-23T04:37:16.582Z,21.12
2014-07-23T04:38:21.568Z,21.22
2014-07-23T04:39:26.554Z,21.22
2014-07-23T04:40:31.228Z,21.17
2014-07-23T04:41:35.918Z,21.18
2014-07-23T04:42:40.607Z,21.02
2014-07-23T04:43:45.281Z,21.01
2014-07-23T04:44:49.971Z,21.11
2014-07-23T04:45:54.956Z,20.94
2014-07-23T04:46:59.943Z,21.03
2014-07-23T04:48:04.616Z,20.98
2014-07-23T04:49:09.603Z,21.19
2014-07-23T04:50:14.589Z,21.06
2014-07-23T04:51:19.561Z,21.15
2014-07-23T04:52:24.249Z,21.12
2014-07-23T04:53:28.940Z,21
2014-07-23T04:54:33.613Z,20.98
2014-07-23T04:55:38.321Z,21.12
2014-07-23T04:56:42.994Z,21.32
2014-07-23T04:57:47.980Z,21.34
2014-07-23T04:58:52.279Z,21.36
2014-07-23T04:59:56.968Z,21.11
2014-07-23T05:01:01.658Z,20.87
2014-07-23T05:02:06.629Z,21.04
2014-07-23T05:03:11.318Z,21.17
2014-07-23T05:04:16.289Z,21.09
2014-07-23T05:05:20.977Z,21.14
2014-07-23T05:06:25.667Z,21.38
2014-07-23T05:07:30.341Z,21.38
2014-07-23T05:08:35.030Z,21.25
2014-07-23T05:09:39.721Z,21.04
2014-07-23T05:10:44.395Z,21.11
2014-07-23T05:11:49.381Z,21.2
2014-07-23T05:12:53.383Z,21.3
2014-07-23T05:13:58.073Z,21.33
2014-07-23T05:15:02.746Z,21.33
2014-07-23T05:16:07.734Z,21.06
2014-07-23T05:17:12.423Z,21.1
2014-07-23T05:18:17.114Z,21.22
2014-07-23T05:19:21.803Z,21.15
2014-07-23T05:20:26.477Z,21.4
2014-07-23T05:21:31.463Z,20.97
2014-07-23T05:22:36.450Z,20.69
2014-07-23T05:23:41.123Z,20.76
2014-07-23T05:24:46.109Z,20.8
2014-07-23T05:25:50.799Z,20.91
2014-07-23T05:26:55.473Z,20.91
2014-07-23T05:28:00.459Z,21.18
2014-07-23T05:29:05.445Z,21.24
2014-07-23T05:30:10.119Z,21.16
2014-07-23T05:31:14.811Z,21.36
2014-07-23T05:32:20.094Z,21.4
2014-07-23T05:33:24.782Z,21.31
2014-07-23T05:34:29.472Z,20.96
2014-07-23T05:35:34.161Z,20.52
2014-07-23T05:36:39.132Z,20.47
2014-07-23T05:37:44.119Z,20.56
2014-07-23T05:38:48.808Z,20.69
2014-07-23T05:39:53.482Z,20.65
2014-07-23T05:40:58.468Z,20.76
2014-07-23T05:42:03.142Z,20.84
2014-07-23T05:43:07.832Z,20.84
2014-07-23T05:44:12.506Z,21
2014-07-23T05:45:17.195Z,21.18
2014-07-23T05:46:21.871Z,21.21
2014-07-23T05:47:26.856Z,21.04
2014-07-23T05:48:31.547Z,20.85
2014-07-23T05:49:36.532Z,20.98
2014-07-23T05:50:41.207Z,20.93
2014-07-23T05:51:46.193Z,21.02
2014-07-23T05:52:51.477Z,20.95
2014-07-23T05:53:56.463Z,21.42
2014-07-23T05:55:01.153Z,21.45
2014-07-23T05:56:06.123Z,21.39
2014-07-23T05:57:11.110Z,21.32
2014-07-23T05:58:15.799Z,21.6
2014-07-23T05:59:20.770Z,21.77
2014-07-23T06:00:25.756Z,22
2014-07-23T06:01:30.446Z,22.29
2014-07-23T06:02:35.713Z,22.1
2014-07-23T06:03:40.700Z,22.27
2014-07-23T06:04:45.983Z,22.63
2014-07-23T06:05:50.969Z,24.72
2014-07-23T06:06:56.237Z,26.35
2014-07-23T06:08:01.222Z,27.74
2014-07-23T06:09:05.912Z,28.62
2014-07-23T06:10:10.601Z,28.69
2014-07-23T06:11:15.277Z,29.46
2014-07-23T06:12:19.968Z,29.82
2014-07-23T06:13:24.656Z,30.67
2014-07-23T06:14:29.643Z,30.01
2014-07-23T06:15:34.332Z,29.34
2014-07-23T06:16:39.023Z,28.38
2014-07-23T06:17:43.711Z,26.9
2014-07-23T06:18:48.682Z,26.34
2014-07-23T06:19:53.668Z,25.98
2014-07-23T06:20:58.670Z,27.1
2014-07-23T06:22:03.360Z,28.32
2014-07-23T06:23:08.048Z,29.89
2014-07-23T06:24:13.036Z,29.96
2014-07-23T06:25:17.725Z,28
2014-07-23T06:26:22.398Z,27.79
2014-07-23T06:27:27.384Z,28.97
2014-07-23T06:28:32.389Z,30.98
2014-07-23T06:29:37.078Z,31.99
2014-07-23T06:30:41.767Z,32.06
2014-07-23T06:31:46.457Z,32.03
2014-07-23T06:32:51.147Z,31.76
2014-07-23T06:33:55.836Z,33.3
2014-07-23T06:35:00.822Z,31.57
2014-07-23T06:36:05.809Z,30.23
2014-07-23T06:37:10.795Z,29.32
2014-07-23T06:38:15.781Z,28.42
2014-07-23T06:39:20.768Z,27.87
2014-07-23T06:40:25.457Z,27.87
2014-07-23T06:41:30.444Z,28.14
2014-07-23T06:42:35.133Z,28.64
2014-07-23T06:43:40.122Z,28.74
2014-07-23T06:44:45.404Z,29.86
2014-07-23T06:45:49.703Z,30.59
2014-07-23T06:46:54.690Z,30
2014-07-23T06:47:59.380Z,28.84
2014-07-23T06:49:04.366Z,27.81
2014-07-23T06:50:09.054Z,26.83
2014-07-23T06:51:13.745Z,26.64
2014-07-23T06:52:18.434Z,26.5
2014-07-23T06:53:23.124Z,26.7
2014-07-23T06:54:28.109Z,26.94
2014-07-23T06:55:32.800Z,26.72
2014-07-23T06:56:37.489Z,26.61
2014-07-23T06:57:42.178Z,26.44
2014-07-23T06:58:46.883Z,26.09
2014-07-23T06:59:51.572Z,25.94
2014-07-23T07:00:56.264Z,26.1
2014-07-23T07:02:01.235Z,26.1
2014-07-23T07:03:05.924Z,25.92
2014-07-23T07:04:10.614Z,25.97
2014-07-23T07:05:15.303Z,25.82
2014-07-23T07:06:19.305Z,25.52
2014-07-23T07:07:24.291Z,25.85
2014-07-23T07:08:28.980Z,25.9
2014-07-23T07:09:33.263Z,25.91
2014-07-23T07:10:37.953Z,25.8
2014-07-23T07:11:42.642Z,25.93
2014-07-23T07:12:47.347Z,25.9
2014-07-23T07:13:52.020Z,25.99
2014-07-23T07:14:56.712Z,26.14
2014-07-23T07:16:00.715Z,26.11
2014-07-23T07:17:05.701Z,26.19
2014-07-23T07:18:10.390Z,26.12
2014-07-23T07:19:15.079Z,25.68
2014-07-23T07:20:19.769Z,25.87
2014-07-23T07:21:24.458Z,25.84
2014-07-23T07:22:29.132Z,26.03
2014-07-23T07:23:34.118Z,26.08
2014-07-23T07:24:39.105Z,26.15
2014-07-23T07:25:43.794Z,26.2
2014-07-23T07:26:48.484Z,26.07
2014-07-23T07:27:53.470Z,26.18
2014-07-23T07:28:58.144Z,25.91
2014-07-23T07:30:02.834Z,25.92
2014-07-23T07:31:07.523Z,26.01
2014-07-23T07:32:12.511Z,26.14
2014-07-23T07:33:17.201Z,26.36
2014-07-23T07:34:21.889Z,26.5
2014-07-23T07:35:26.564Z,26.46
2014-07-23T07:36:31.254Z,26.38
2014-07-23T07:37:36.239Z,26.37
2014-07-23T07:38:40.930Z,26.46
2014-07-23T07:39:45.619Z,26.73
2014-07-23T07:40:50.309Z,26.66
2014-07-23T07:41:54.311Z,26.76
2014-07-23T07:42:58.984Z,26.68
2014-07-23T07:44:03.673Z,26.19
2014-07-23T07:45:08.363Z,26.02
2014-07-23T07:46:13.052Z,26
2014-07-23T07:47:18.040Z,25.62
2014-07-23T07:48:22.730Z,25.62
2014-07-23T07:49:27.419Z,25.94
2014-07-23T07:50:32.093Z,26.33
2014-07-23T07:51:36.783Z,26.24
2014-07-23T07:52:41.472Z,25.44
2014-07-23T07:53:46.459Z,25.82
2014-07-23T07:54:51.147Z,26.3
2014-07-23T08:11:14.022Z,26.69
2014-07-23T08:12:19.008Z,27.1
2014-07-23T08:13:23.698Z,27.18
2014-07-23T08:14:28.419Z,26.67
2014-07-23T08:15:33.405Z,26.84
2014-07-23T08:16:38.407Z,27.06
2014-07-23T08:17:43.113Z,26.86
2014-07-23T08:18:48.100Z,26.91
2014-07-23T08:19:52.790Z,27.27
2014-07-23T08:20:57.479Z,27.47
2014-07-23T08:22:02.169Z,27.59
2014-07-23T08:23:07.155Z,27.82
2014-07-23T08:24:12.142Z,27.82
2014-07-23T08:25:16.831Z,27.8
2014-07-23T08:26:21.817Z,27.61
2014-07-23T08:27:26.804Z,27.72
2014-07-23T08:28:31.493Z,27.7
2014-07-23T08:29:36.183Z,27.68
2014-07-23T08:30:40.872Z,27.78
2014-07-23T08:31:45.843Z,27.89
2014-07-23T08:32:51.142Z,27.88
2014-07-23T08:33:55.833Z,27.9
2014-07-23T08:35:00.523Z,27.72
2014-07-23T08:36:05.212Z,27.26
2014-07-23T08:37:10.495Z,27.33
2014-07-23T08:38:15.184Z,27.37
2014-07-23T08:39:19.873Z,27.37
2014-07-23T08:40:24.562Z,27.32
2014-07-23T08:41:29.236Z,27.55
2014-07-23T08:42:34.238Z,27.71
2014-07-23T08:43:39.210Z,28.06
2014-07-23T08:44:43.899Z,27.92
2014-07-23T08:45:48.886Z,27.93
2014-07-23T08:46:53.574Z,27.79
2014-07-23T08:47:58.266Z,28.07
2014-07-23T08:49:02.955Z,28.08
2014-07-23T08:50:07.660Z,28.8
2014-07-23T08:51:12.350Z,28.78
2014-07-23T08:52:17.024Z,28.39
2014-07-23T08:53:21.729Z,27.94
2014-07-23T08:54:26.403Z,27.6
2014-07-23T08:55:31.092Z,27.81
2014-07-23T08:56:36.078Z,27.61
2014-07-23T08:57:40.767Z,27.62
2014-07-23T08:58:45.457Z,27.88
2014-07-23T08:59:50.443Z,28.03
2014-07-23T09:00:55.431Z,28.2
2014-07-23T09:02:00.418Z,28.02
2014-07-23T09:03:05.107Z,28.34
2014-07-23T09:04:09.796Z,28
2014-07-23T09:05:14.486Z,26.92
2014-07-23T09:06:19.488Z,27.41
2014-07-23T09:07:24.177Z,27.94
2014-07-23T09:08:28.867Z,28.03
2014-07-23T09:09:33.838Z,28.43
2014-07-23T09:10:38.542Z,28.44
2014-07-23T09:11:43.248Z,27.95
2014-07-23T09:12:47.953Z,28.3
2014-07-23T09:13:52.940Z,27.97
2014-07-23T09:14:57.628Z,28.32
2014-07-23T09:16:02.318Z,28.1
2014-07-23T09:17:07.306Z,27.98
2014-07-23T09:18:11.996Z,27.34
2014-07-23T09:19:16.685Z,27.56
2014-07-23T09:20:21.672Z,27.26
2014-07-23T09:21:26.658Z,27.73
2014-07-23T09:22:31.347Z,28.22
2014-07-23T09:23:36.037Z,28.26
2014-07-23T09:24:40.726Z,28.16
2014-07-23T09:25:45.416Z,28.24
2014-07-23T09:26:50.090Z,28.24
2014-07-23T09:27:54.779Z,27.92
2014-07-23T09:28:59.469Z,27.82
2014-07-23T09:30:04.158Z,28.18
2014-07-23T09:31:08.863Z,28.1
2014-07-23T09:32:13.850Z,28.22
2014-07-23T09:33:18.836Z,28.17
2014-07-23T09:34:23.526Z,28.65
2014-07-23T09:35:28.215Z,28.05
2014-07-23T09:36:32.906Z,28.35
2014-07-23T09:37:37.596Z,28.03
2014-07-23T09:38:42.269Z,27.78
2014-07-23T09:39:47.255Z,28.28
2014-07-23T09:40:52.243Z,28.49
2014-07-23T09:41:56.932Z,28.28
2014-07-23T09:43:01.665Z,28.68
2014-07-23T09:44:06.694Z,28.4
2014-07-23T09:45:11.427Z,28.51
2014-07-23T09:46:16.472Z,28.41
2014-07-23T09:47:21.499Z,28.43
2014-07-23T09:48:26.500Z,28.48
2014-07-23T09:49:31.503Z,27.79
2014-07-23T09:50:36.505Z,27.88
2014-07-23T09:51:41.508Z,27.79
2014-07-23T09:52:46.218Z,28.31
2014-07-23T09:53:50.914Z,28.36
2014-07-23T09:54:55.609Z,28.5
2014-07-23T09:55:59.617Z,28.63
2014-07-23T09:57:04.312Z,28.33
2014-07-23T09:58:09.300Z,27.56
2014-07-23T09:59:13.991Z,28.1
2014-07-23T10:00:18.683Z,28.91
2014-07-23T10:01:23.374Z,28.93
2014-07-23T10:02:28.065Z,28.17
2014-07-23T10:03:33.051Z,28.87
2014-07-23T10:04:38.039Z,28.98
2014-07-23T10:05:42.729Z,28.66
2014-07-23T10:06:47.420Z,29.37
2014-07-23T10:07:52.109Z,29.62
2014-07-23T10:08:56.800Z,29.37
2014-07-23T10:10:01.488Z,29.51
2014-07-23T10:11:06.475Z,29.78
2014-07-23T10:12:11.166Z,29.72
2014-07-23T10:13:15.856Z,29.88
2014-07-23T10:14:20.842Z,30.1
2014-07-23T10:15:25.531Z,29.58
2014-07-23T10:16:30.221Z,29.64
2014-07-23T10:17:34.910Z,29.82
2014-07-23T10:18:39.600Z,29.58
2014-07-23T10:19:44.289Z,29.4
2014-07-23T10:20:48.978Z,28.78
2014-07-23T10:21:53.668Z,29.33
2014-07-23T10:22:57.967Z,29.54
2014-07-23T10:24:02.657Z,29.47
2014-07-23T10:25:07.346Z,29.72
2014-07-23T10:26:12.036Z,29.62
2014-07-23T10:27:16.726Z,29.66
2014-07-23T10:28:21.728Z,29.86
2014-07-23T10:29:26.418Z,30.01
2014-07-23T10:30:31.107Z,29.76
2014-07-23T10:31:35.797Z,29.24
2014-07-23T10:32:40.486Z,28.87
2014-07-23T10:33:45.176Z,28.49
2014-07-23T10:34:50.475Z,29.03
2014-07-23T10:35:55.164Z,28.85
2014-07-23T10:36:59.854Z,28.72
2014-07-23T10:38:04.542Z,28.93
2014-07-23T10:39:09.825Z,29.12
2014-07-23T10:40:14.516Z,29.26
2014-07-23T10:41:19.503Z,29.39
2014-07-23T10:42:24.193Z,28.88
2014-07-23T10:43:29.179Z,29.17
2014-07-23T10:44:33.853Z,28.92
2014-07-23T10:45:38.543Z,29.29
2014-07-23T10:46:43.232Z,29.42
2014-07-23T10:47:47.937Z,29.35
2014-07-23T10:48:52.627Z,29.36
2014-07-23T10:49:57.613Z,29.38
2014-07-23T10:51:02.912Z,28.82
2014-07-23T10:52:06.914Z,28.62
2014-07-23T10:53:11.603Z,28.51
2014-07-23T10:54:16.293Z,28.76
2014-07-23T10:55:20.295Z,28.71
2014-07-23T10:56:25.281Z,28.91
2014-07-23T10:57:29.283Z,28.35
2014-07-23T10:58:33.973Z,28.55
2014-07-23T10:59:38.958Z,28.85
2014-07-23T11:00:43.648Z,28.64
2014-07-23T11:01:48.339Z,28.72
2014-07-23T11:02:53.029Z,29.15
2014-07-23T11:03:57.719Z,28.84
2014-07-23T11:05:02.392Z,28.68
2014-07-23T11:06:07.082Z,28.7
2014-07-23T11:07:12.069Z,28.94
2014-07-23T11:08:16.757Z,28.97
2014-07-23T11:09:21.447Z,28.81
2014-07-23T11:10:26.136Z,29.06
2014-07-23T11:11:30.857Z,28.88
2014-07-23T11:12:35.547Z,28.87
2014-07-23T11:13:40.221Z,28.72
2014-07-23T11:14:44.926Z,28.67
2014-07-23T11:15:49.912Z,28.42
2014-07-23T11:16:55.195Z,28.66
2014-07-23T11:17:59.885Z,28.81
2014-07-23T11:19:04.871Z,29.03
2014-07-23T11:20:09.562Z,28.67
2014-07-23T11:21:14.547Z,28.58
2014-07-23T11:22:19.222Z,29
2014-07-23T11:23:24.223Z,28.85
2014-07-23T11:24:28.912Z,29.08
2014-07-23T11:25:33.602Z,29.08
2014-07-23T11:26:38.276Z,28.92
2014-07-23T11:27:42.967Z,28.83
2014-07-23T11:28:47.657Z,28.95
2014-07-23T11:29:52.346Z,29.03
2014-07-23T11:30:57.083Z,28.69
2014-07-23T11:32:02.069Z,28.64
2014-07-23T11:33:06.759Z,28.65
2014-07-23T11:34:11.448Z,28.42
2014-07-23T11:35:16.731Z,28.26
2014-07-23T11:36:21.421Z,28.53
2014-07-23T11:37:26.095Z,28.36
2014-07-23T11:38:30.800Z,28.36
2014-07-23T11:39:35.489Z,28.78
2014-07-23T11:40:40.163Z,28.41
2014-07-23T11:41:45.150Z,28.43
2014-07-23T11:42:49.839Z,28.58
2014-07-23T11:43:54.529Z,28.41
2014-07-23T11:44:59.531Z,28.48
2014-07-23T11:46:04.220Z,28.64
2014-07-23T11:47:09.206Z,28.63
2014-07-23T11:48:13.896Z,28.8
2014-07-23T11:49:18.882Z,28.8
2014-07-23T11:50:23.572Z,28.5
2014-07-23T11:51:28.261Z,28.66
2014-07-23T11:52:32.953Z,28.54
2014-07-23T11:53:37.641Z,28.72
2014-07-23T11:54:42.347Z,28.84
2014-07-23T11:55:47.037Z,28.9
2014-07-23T11:56:51.726Z,28.98
2014-07-23T11:57:56.712Z,29.07
2014-07-23T11:59:01.402Z,28.74
2014-07-23T12:00:06.091Z,28.57
2014-07-23T12:01:10.797Z,28.45
2014-07-23T12:02:15.782Z,28.84
2014-07-23T12:03:21.066Z,29
2014-07-23T12:04:25.756Z,28.43
2014-07-23T12:05:30.445Z,28.55
2014-07-23T12:06:34.447Z,28.74
2014-07-23T12:07:39.433Z,29.18
2014-07-23T12:08:44.717Z,29.19
2014-07-23T12:09:49.015Z,29.26
2014-07-23T12:10:54.001Z,29.44
2014-07-23T12:11:58.691Z,29.53
2014-07-23T12:13:03.380Z,29.58
2014-07-23T12:14:08.073Z,29.39
2014-07-23T12:15:13.058Z,29.21
2014-07-23T12:16:18.045Z,29.02
2014-07-23T12:17:23.328Z,28.91
2014-07-23T12:18:28.017Z,28.78
2014-07-23T12:19:33.004Z,29.04
2014-07-23T12:20:37.693Z,28.56
2014-07-23T12:21:42.383Z,28.74
2014-07-23T12:22:47.071Z,28.82
2014-07-23T12:23:51.761Z,28.56
2014-07-23T12:24:56.732Z,28.78
2014-07-23T12:26:01.421Z,28.69
2014-07-23T12:27:06.111Z,28.73
2014-07-23T12:28:10.801Z,28.64
2014-07-23T12:29:15.505Z,28.8
2014-07-23T12:30:20.492Z,29.12
2014-07-23T12:31:25.182Z,29.19
2014-07-23T12:32:30.169Z,28.88
2014-07-23T12:33:35.157Z,28.54
2014-07-23T12:34:40.142Z,28.51
2014-07-23T12:35:44.832Z,28.63
2014-07-23T12:36:49.818Z,28.75
2014-07-23T12:37:54.508Z,29.02
2014-07-23T12:38:59.494Z,28.37
2014-07-23T12:40:03.777Z,28.26
2014-07-23T12:41:08.467Z,28.56
2014-07-23T12:42:13.172Z,28.54
2014-07-23T12:43:17.861Z,28.35
2014-07-23T12:44:22.551Z,28.48
2014-07-23T12:45:27.537Z,28.91
2014-07-23T12:46:32.227Z,28.91
2014-07-23T12:47:36.916Z,28.97
2014-07-23T12:48:41.887Z,28.94
2014-07-23T12:49:46.890Z,29.08
2014-07-23T12:50:51.875Z,29.4
2014-07-23T12:51:56.565Z,29.66
2014-07-23T12:53:01.256Z,29.55
2014-07-23T12:54:05.946Z,29.55
2014-07-23T12:55:10.635Z,29.51
2014-07-23T12:56:15.622Z,29.75
2014-07-23T12:57:20.608Z,30.04
2014-07-23T12:58:25.298Z,29.86
2014-07-23T12:59:29.987Z,29.8
2014-07-23T13:00:34.692Z,30.07
2014-07-23T13:01:39.397Z,30.21
2014-07-23T13:02:44.384Z,29.79
2014-07-23T13:03:49.370Z,29.28
2014-07-23T13:04:54.356Z,29.92
2014-07-23T13:05:59.046Z,29.53
2014-07-23T13:07:03.720Z,29.38
2014-07-23T13:08:08.424Z,29.19
2014-07-23T13:09:13.113Z,29.4
2014-07-23T13:10:18.117Z,29.35
2014-07-23T13:11:22.807Z,29.07
2014-07-23T13:12:27.512Z,29.21
2014-07-23T13:13:32.202Z,29.06
2014-07-23T13:14:36.891Z,28.82
2014-07-23T13:15:41.877Z,28.66
2014-07-23T13:16:47.161Z,28.68
2014-07-23T13:17:51.850Z,28.71
2014-07-23T13:18:56.539Z,28.32
2014-07-23T13:20:01.526Z,28.2
2014-07-23T13:21:06.809Z,28.27
2014-07-23T13:22:11.796Z,28.42
2014-07-23T13:23:16.485Z,28.26
2014-07-23T13:24:21.174Z,28.4
2014-07-23T13:25:26.457Z,28.52
2014-07-23T13:26:31.147Z,28.42
2014-07-23T13:27:35.837Z,28.49
2014-07-23T13:28:40.526Z,28.22
2014-07-23T13:29:45.513Z,28.4
2014-07-23T13:30:50.203Z,28.31
2014-07-23T13:31:54.894Z,28.53
2014-07-23T13:32:59.583Z,28.68
2014-07-23T13:34:04.287Z,28.71
2014-07-23T13:35:08.977Z,28.8
2014-07-23T13:36:13.666Z,28.8
2014-07-23T13:37:18.356Z,28.86
2014-07-23T13:38:23.045Z,28.4
2014-07-23T13:39:27.719Z,28.42
2014-07-23T13:40:32.409Z,28.56
2014-07-23T13:41:37.395Z,28.83
2014-07-23T13:42:42.100Z,28.82
2014-07-23T13:43:46.790Z,28.74
2014-07-23T13:44:51.479Z,28.79
2014-07-23T13:45:56.169Z,28.62
2014-07-23T13:47:01.155Z,28.91
2014-07-23T13:48:05.845Z,28.82
2014-07-23T13:49:10.534Z,28.73
2014-07-23T13:50:15.523Z,28.69
2014-07-23T13:51:20.806Z,28.65
2014-07-23T13:52:25.495Z,28.61
2014-07-23T13:53:30.185Z,28.6
2014-07-23T13:54:35.171Z,28.64
2014-07-23T13:55:39.860Z,28.48
2014-07-23T13:56:44.846Z,28.53
2014-07-23T13:57:49.536Z,28.76
2014-07-23T13:58:54.225Z,28.76
2014-07-23T13:59:58.915Z,28.96
2014-07-23T14:01:04.198Z,29.06
2014-07-23T14:02:09.340Z,28.68
2014-07-23T14:03:14.030Z,28.94
2014-07-23T14:04:18.719Z,28.74
2014-07-23T14:05:23.411Z,28.79
2014-07-23T14:06:28.100Z,29.13
2014-07-23T14:07:32.790Z,29.03
2014-07-23T14:08:37.776Z,28.77
2014-07-23T14:09:42.466Z,28.93
2014-07-23T14:10:47.155Z,29.12
2014-07-23T14:11:52.423Z,29.4
2014-07-23T14:12:57.408Z,29.1
2014-07-23T14:14:02.426Z,28.86